Algonquin, Illinois
Current Conditions -  °F | °C
As of 6:52 PM on Monday 20 Oct 2014 (Local Time) from KDPA Reporting Station
Overcast Overcast  
Wind Chill: 56°   Ceiling: 6500
Heat Index: 56°   Visibility: 10mi
Dew Point: 42°   Wind: 12mph
Humidity: 60%   Direction: 360°N
Pressure: 29.95"   Gusts: NA
Location:  42.17°N, 88.29°W
Report Text: KDPA 202352Z 36010KT 10SM OVC065 13/06 A2995 RMK AO2 SLP145 T01330056 10194 20122 51026
Loading
Personal Weather Stations






























Interactive Weather Map
Tropical Storm Tracking
New forecast layout! Learn more

10-Day Weather Forecast

Advertisements
Track Severe Weather on mobile